Puerto Jimenez Airport


Codes: MRPJ/PJM
Name: Puerto Jimenez Airport
City: Puerto Jimenez
Country: Costa Rica
Elevation: 7 ft.
Website:
Wikipedia:

Photos at Puerto Jimenez Airport


   Photos courtesy of SpottingLog. You can add your own sightings and photos by signing up for a free trial today.



No photos found.

Weather at Puerto Jimenez Airport


Time (UTC)DescriptionTempratureWindCloud coverageVisibilityPressureHumidity
16-Jun-2024 09:00Overcast Clouds24°C2 mph, N100%10000m1010hPa94%
16-Jun-2024 12:00Overcast Clouds24°C2 mph, NW100%10000m1010hPa94%
16-Jun-2024 15:00Overcast Clouds25°C0 mph, W99%10000m1011hPa90%
16-Jun-2024 18:00Light Rain28°C4 mph, SW81%10000m1011hPa79%
16-Jun-2024 21:00Light Rain27°C7 mph, SW85%8955m1010hPa87%
17-Jun-2024 00:00Light Rain26°C2 mph, W76%6053m1010hPa89%
17-Jun-2024 03:00Light Rain25°C0 mph, N56%10000m1012hPa91%
17-Jun-2024 06:00Light Rain24°C2 mph, NE70%10000m1011hPa93%
17-Jun-2024 09:00Overcast Clouds24°C2 mph, N100%10000m1010hPa94%
17-Jun-2024 12:00Overcast Clouds24°C4 mph, NW100%10000m1010hPa94%
17-Jun-2024 15:00Overcast Clouds26°C2 mph, NW100%10000m1011hPa87%
17-Jun-2024 18:00Light Rain27°C2 mph, SW100%10000m1010hPa86%
17-Jun-2024 21:00Light Rain26°C2 mph, SW100%10000m1008hPa90%
18-Jun-2024 00:00Light Rain25°C4 mph, NW100%10000m1009hPa92%
18-Jun-2024 03:00Light Rain25°C2 mph, NW100%10000m1011hPa92%
18-Jun-2024 06:00Overcast Clouds25°C2 mph, NW100%10000m1010hPa94%
18-Jun-2024 09:00Overcast Clouds24°C2 mph, N99%10000m1009hPa94%
18-Jun-2024 12:00Overcast Clouds25°C2 mph, N99%10000m1010hPa91%
18-Jun-2024 15:00Light Rain28°C2 mph, NW100%10000m1011hPa81%
18-Jun-2024 18:00Light Rain29°C4 mph, SW92%10000m1009hPa82%
18-Jun-2024 21:00Moderate Rain27°C4 mph, W94%10000m1007hPa88%
19-Jun-2024 00:00Moderate Rain25°C2 mph, N97%6721m1009hPa93%
19-Jun-2024 03:00Moderate Rain24°C2 mph, NE100%10000m1011hPa96%
19-Jun-2024 06:00Light Rain24°C0 mph, E100%10000m1010hPa96%
19-Jun-2024 09:00Light Rain24°C2 mph, NW100%10000m1009hPa96%
19-Jun-2024 12:00Light Rain24°C4 mph, NW100%10000m1009hPa95%
19-Jun-2024 15:00Light Rain27°C4 mph, NW100%10000m1010hPa85%
19-Jun-2024 18:00Light Rain28°C7 mph, NW100%10000m1009hPa81%
19-Jun-2024 21:00Moderate Rain25°C4 mph, NW100%4123m1007hPa94%
20-Jun-2024 00:00Moderate Rain24°C4 mph, NW100%7147m1009hPa93%
20-Jun-2024 03:00Moderate Rain24°C4 mph, NW100%10000m1010hPa96%
20-Jun-2024 06:00Light Rain24°C4 mph, NW100%10000m1009hPa95%
20-Jun-2024 09:00Light Rain24°C4 mph, NW100%10000m1008hPa95%
20-Jun-2024 12:00Moderate Rain24°C2 mph, NW100%4601m1009hPa96%
20-Jun-2024 15:00Moderate Rain25°C2 mph, W100%10000m1011hPa94%
20-Jun-2024 18:00Moderate Rain24°C2 mph, W100%7048m1010hPa97%
20-Jun-2024 21:00Moderate Rain23°C2 mph, W100%2760m1009hPa99%
21-Jun-2024 00:00Moderate Rain23°C2 mph, N100%10000m1010hPa96%
21-Jun-2024 03:00Light Rain23°C2 mph, W100%6496m1012hPa95%
21-Jun-2024 06:00Moderate Rain23°C2 mph, N100%10000m1011hPa97%